Time;durP1;ratioP1;P1;durP2;ratioP2;P2;SDS_P1;SDS_P2;PMS_P1;PMS_P2;Temp;Humidity;BMP_temperature;BMP_pressure;BME280_temperature;BME280_humidity;BME280_pressure;Samples;Min_cycle;Max_cycle;Signal;HPM_P1;HPM_P2
2023/05/07 00:04:28;;;;;;;;;;;24.30;68.10;;;;;;10531794;28;20072;-23
2023/05/07 00:09:31;;;;;;;4.05;2.00;;;24.30;68.20;;;;;;10532006;28;19920;-24
2023/05/07 00:14:33;;;;;;;3.17;2.20;;;24.30;68.30;;;;;;10533058;28;20044;-24
2023/05/07 00:19:34;;;;;;;;;;;24.30;68.40;;;;;;10527818;28;20127;-24
2023/05/07 00:24:37;;;;;;;3.30;1.98;;;24.20;68.60;;;;;;10534238;28;19957;-23
2023/05/07 00:29:40;;;;;;;5.32;1.92;;;24.20;68.70;;;;;;10534694;28;20451;-23
2023/05/07 00:34:41;;;;;;;4.38;2.08;;;24.20;68.90;;;;;;10516424;28;20127;-24
2023/05/07 00:39:45;;;;;;;2.35;1.60;;;24.20;68.80;;;;;;10524780;28;20105;-24
2023/05/07 00:44:46;;;;;;;3.70;2.40;;;24.10;68.90;;;;;;10518986;28;20079;-24
2023/05/07 00:49:48;;;;;;;2.65;1.92;;;24.10;69.00;;;;;;10531161;28;20085;-24
2023/05/07 00:54:52;;;;;;;;;;;24.10;69.10;;;;;;10534034;28;20105;-22
2023/05/07 00:59:54;;;;;;;2.17;1.95;;;24.10;69.20;;;;;;10528742;28;19973;-24
2023/05/07 01:04:56;;;;;;;4.38;2.00;;;24.10;69.10;;;;;;10518088;28;20051;-24
2023/05/07 01:10:00;;;;;;;3.70;1.88;;;24.10;69.10;;;;;;10531126;28;20052;-22
2023/05/07 01:15:02;;;;;;;2.65;1.80;;;24.00;69.40;;;;;;10522116;28;20048;-24
2023/05/07 01:20:06;;;;;;;3.35;2.42;;;24.00;69.40;;;;;;10515432;28;20076;-24
2023/05/07 01:25:10;;;;;;;2.78;1.80;;;24.00;69.60;;;;;;10503718;28;20040;-24
2023/05/07 01:30:12;;;;;;;5.45;2.30;;;23.90;69.60;;;;;;10520195;28;20048;-24
2023/05/07 01:35:19;;;;;;;3.88;2.15;;;23.90;69.70;;;;;;10522109;28;20044;-24
2023/05/07 01:40:23;;;;;;;4.38;2.15;;;23.90;70.00;;;;;;10529618;28;20052;-24
2023/05/07 01:45:25;;;;;;;3.92;2.30;;;23.90;70.00;;;;;;10516788;28;20471;-24
2023/05/07 01:50:28;;;;;;;3.42;2.20;;;23.80;70.00;;;;;;10505514;28;20052;-24
2023/05/07 01:55:31;;;;;;;4.68;2.22;;;23.80;70.20;;;;;;10531144;28;20082;-24
2023/05/07 02:00:33;;;;;;;2.60;1.63;;;23.80;70.20;;;;;;10534663;28;20142;-24
2023/05/07 02:05:34;;;;;;;;;;;23.80;70.30;;;;;;10538627;28;20044;-24
2023/05/07 02:10:38;;;;;;;2.83;1.75;;;23.80;70.60;;;;;;10534811;28;19924;-25
2023/05/07 02:15:39;;;;;;;2.40;1.90;;;23.70;70.10;;;;;;10526200;28;20457;-22
2023/05/07 02:20:41;;;;;;;3.65;2.03;;;23.70;70.70;;;;;;10519530;28;20126;-23
2023/05/07 02:25:45;;;;;;;4.07;2.33;;;23.70;70.70;;;;;;10530321;28;20405;-24
2023/05/07 02:30:47;;;;;;;5.85;2.17;;;23.70;70.70;;;;;;10532561;28;20052;-24
2023/05/07 02:35:48;;;;;;;;;;;23.70;70.90;;;;;;10532868;28;20559;-24
2023/05/07 02:40:51;;;;;;;3.17;1.77;;;23.70;70.80;;;;;;10533784;28;19926;-23
2023/05/07 02:46:02;;;;;;;3.35;1.88;;;23.70;70.90;;;;;;10536466;28;20597;-24
2023/05/07 02:51:05;;;;;;;2.35;1.73;;;23.60;70.90;;;;;;10551482;28;20048;-24
2023/05/07 02:56:08;;;;;;;3.53;2.00;;;23.60;70.90;;;;;;10531873;28;20094;-24
2023/05/07 03:01:10;;;;;;;2.80;1.80;;;23.60;71.00;;;;;;10530987;28;20049;-24
2023/05/07 03:06:12;;;;;;;;;;;23.50;70.70;;;;;;10534505;28;20098;-24
2023/05/07 03:11:15;;;;;;;3.07;1.63;;;23.50;71.20;;;;;;10537533;28;19924;-23
2023/05/07 03:16:17;;;;;;;2.53;1.67;;;23.50;71.00;;;;;;10536025;28;20564;-23
2023/05/07 03:21:18;;;;;;;;;;;23.50;71.00;;;;;;10536283;28;20042;-23
2023/05/07 03:26:22;;;;;;;3.53;1.83;;;23.50;71.00;;;;;;10526955;28;19949;-24
2023/05/07 03:31:24;;;;;;;3.50;1.77;;;23.40;71.50;;;;;;10526355;28;20556;-23
2023/05/07 03:36:26;;;;;;;1.60;1.20;;;23.40;71.20;;;;;;10533644;28;20545;-24
2023/05/07 03:41:29;;;;;;;4.25;1.73;;;23.40;71.30;;;;;;10524278;28;20050;-24
2023/05/07 03:46:32;;;;;;;1.85;1.42;;;23.40;71.40;;;;;;10528216;28;20408;-24
2023/05/07 03:51:35;;;;;;;1.60;1.50;;;23.40;71.60;;;;;;10531927;28;20058;-24
2023/05/07 03:56:39;;;;;;;2.80;1.25;;;23.40;71.50;;;;;;10531331;28;20477;-24
2023/05/07 04:01:41;;;;;;;2.65;1.88;;;23.40;71.90;;;;;;10517170;28;20053;-24
2023/05/07 04:06:42;;;;;;;;;;;23.30;71.80;;;;;;10517972;28;20125;-23
2023/05/07 04:11:45;;;;;;;1.90;1.30;;;23.30;71.80;;;;;;10529908;28;19924;-24
2023/05/07 04:16:47;;;;;;;2.05;1.33;;;23.30;71.70;;;;;;10525647;28;20123;-23
2023/05/07 04:21:49;;;;;;;;;;;23.30;71.70;;;;;;10520535;28;20052;-22
2023/05/07 04:26:52;;;;;;;2.05;1.48;;;23.30;71.90;;;;;;10522119;28;19920;-24
2023/05/07 04:31:55;;;;;;;1.83;1.50;;;23.30;71.80;;;;;;10522962;28;20056;-24
2023/05/07 04:36:59;;;;;;;3.63;2.13;;;23.30;72.30;;;;;;10527643;28;20076;-24
2023/05/07 04:42:03;;;;;;;2.45;1.60;;;23.30;71.80;;;;;;10535570;28;20060;-23
2023/05/07 04:47:04;;;;;;;2.17;1.65;;;23.20;72.00;;;;;;10522943;28;20048;-24
2023/05/07 04:52:06;;;;;;;;;;;23.20;71.80;;;;;;10523521;28;20040;-24
2023/05/07 04:57:09;;;;;;;1.05;0.95;;;23.30;71.90;;;;;;10514111;28;19942;-24
2023/05/07 05:02:11;;;;;;;7.00;1.55;;;23.20;71.70;;;;;;10510160;28;20127;-24
2023/05/07 05:07:13;;;;;;;3.75;1.45;;;23.30;71.80;;;;;;10523010;28;20075;-24
2023/05/07 05:12:16;;;;;;;;;;;23.30;71.90;;;;;;10517020;28;20044;-24
2023/05/07 05:17:19;;;;;;;1.88;1.33;;;23.20;72.00;;;;;;10528627;28;20368;-24
2023/05/07 05:22:21;;;;;;;1.80;1.70;;;23.20;71.90;;;;;;10519656;28;20178;-23
2023/05/07 05:27:25;;;;;;;2.13;1.52;;;23.30;72.00;;;;;;10531756;28;20052;-23
2023/05/07 05:32:27;;;;;;;1.70;1.38;;;23.20;71.90;;;;;;10535194;28;20091;-23
2023/05/07 05:37:30;;;;;;;2.55;1.45;;;23.20;71.50;;;;;;10530166;28;20072;-24
2023/05/07 05:42:33;;;;;;;1.88;1.30;;;23.20;71.80;;;;;;10530415;28;20075;-23
2023/05/07 05:47:35;;;;;;;2.60;1.30;;;23.20;71.70;;;;;;10534833;28;20052;-24
2023/05/07 05:52:36;;;;;;;3.58;1.50;;;23.20;71.70;;;;;;10525887;28;20404;-24
2023/05/07 05:57:40;;;;;;;3.67;1.60;;;23.20;72.00;;;;;;10524931;28;20045;-22
2023/05/07 06:02:42;;;;;;;1.65;1.38;;;23.20;71.80;;;;;;10518739;28;20055;-24
2023/05/07 06:07:44;;;;;;;2.47;1.52;;;23.20;71.90;;;;;;10523235;28;20139;-24
2023/05/07 06:12:47;;;;;;;;;;;23.00;71.10;;;;;;10526895;28;20695;-24
2023/05/07 06:17:49;;;;;;;5.20;1.52;;;22.90;71.50;;;;;;10534134;28;20336;-24
2023/05/07 06:22:51;;;;;;;2.25;1.45;;;22.80;72.00;;;;;;10522537;28;20051;-24
2023/05/07 06:27:54;;;;;;;;;;;22.80;72.10;;;;;;10516595;28;20072;-25
2023/05/07 06:32:56;;;;;;;7.82;1.50;;;23.10;71.20;;;;;;10525433;28;19920;-24
2023/05/07 06:37:58;;;;;;;3.20;1.50;;;23.20;71.70;;;;;;10516148;28;20054;-24
2023/05/07 06:43:01;;;;;;;5.13;1.40;;;23.00;71.20;;;;;;10516459;28;20532;-25
2023/05/07 06:48:04;;;;;;;1.67;1.30;;;23.20;72.10;;;;;;10530765;28;20118;-25
2023/05/07 06:53:06;;;;;;;1.55;1.40;;;23.10;71.50;;;;;;10524562;28;20051;-23
2023/05/07 06:58:09;;;;;;;4.35;1.60;;;23.00;71.00;;;;;;10524172;28;20488;-24
2023/05/07 07:03:11;;;;;;;1.50;1.15;;;23.00;71.30;;;;;;10519614;28;20068;-24
2023/05/07 07:08:12;;;;;;;;;;;23.00;71.10;;;;;;10524329;28;20500;-24
2023/05/07 07:13:16;;;;;;;3.03;1.40;;;23.40;71.00;;;;;;10520404;28;19949;-25
2023/05/07 07:18:17;;;;;;;7.78;1.20;;;23.50;70.50;;;;;;10533948;28;20513;-24
2023/05/07 07:23:19;;;;;;;;;;;23.40;70.10;;;;;;10527416;28;20039;-24
2023/05/07 07:28:23;;;;;;;4.13;1.67;;;23.40;70.00;;;;;;10536197;28;19959;-25
2023/05/07 07:33:25;;;;;;;4.93;2.25;;;23.40;69.70;;;;;;10522236;28;20536;-24
2023/05/07 07:38:27;;;;;;;;;;;23.40;69.70;;;;;;10517250;28;20048;-24
2023/05/07 07:43:30;;;;;;;;;;;23.40;69.70;;;;;;10508244;28;20324;-24
2023/05/07 07:48:32;;;;;;;5.75;2.30;;;23.40;69.30;;;;;;10528933;28;19920;-24
2023/05/07 07:53:34;;;;;;;;;;;23.40;69.80;;;;;;10533645;28;20439;-24
2023/05/07 07:58:39;;;;;;;3.50;1.88;;;23.50;69.40;;;;;;10529200;28;20008;-24
2023/05/07 08:03:40;;;;;;;3.33;1.85;;;23.60;69.10;;;;;;10539173;28;20056;-24
2023/05/07 08:08:42;;;;;;;2.90;2.45;;;23.70;67.80;;;;;;10524269;28;20147;-24
2023/05/07 08:13:46;;;;;;;;;;;23.70;67.90;;;;;;10520015;28;20564;-24
2023/05/07 08:18:48;;;;;;;6.07;3.25;;;23.70;67.90;;;;;;10523527;28;19993;-24
2023/05/07 08:23:50;;;;;;;;;;;23.70;68.10;;;;;;10519104;28;20047;-24
2023/05/07 08:28:53;;;;;;;6.07;3.35;;;23.70;68.10;;;;;;10506255;28;19924;-24
2023/05/07 08:33:55;;;;;;;5.28;3.22;;;23.70;68.00;;;;;;10524320;28;20495;-24
2023/05/07 08:38:56;;;;;;;5.28;3.80;;;23.70;67.80;;;;;;10525412;28;20093;-24
2023/05/07 08:44:03;;;;;;;4.53;3.40;;;23.90;67.50;;;;;;10530474;28;20055;-24
2023/05/07 08:49:05;;;;;;;5.32;4.40;;;24.10;66.80;;;;;;10519258;28;20400;-24
2023/05/07 08:54:08;;;;;;;9.45;3.78;;;24.10;66.40;;;;;;10532103;28;20476;-25
2023/05/07 08:59:11;;;;;;;5.38;3.40;;;24.30;79.60;;;;;;10523766;28;20072;-25
2023/05/07 09:04:13;;;;;;;5.28;3.85;;;24.60;75.00;;;;;;10529172;28;20083;-24
2023/05/07 09:09:17;;;;;;;4.20;3.13;;;24.40;71.50;;;;;;10528394;28;20109;-24
2023/05/07 09:14:22;;;;;;;3.25;2.95;;;24.30;69.40;;;;;;10526241;28;20075;-24
2023/05/07 09:19:25;;;;;;;5.80;3.30;;;24.30;69.10;;;;;;10517587;28;20554;-24
2023/05/07 09:24:28;;;;;;;3.88;2.97;;;24.30;69.30;;;;;;10524111;28;20043;-24
2023/05/07 09:29:35;;;;;;;7.63;3.28;;;24.30;69.10;;;;;;10528252;28;20713;-24
2023/05/07 09:34:37;;;;;;;3.90;2.83;;;24.30;69.20;;;;;;10508735;28;20155;-24
2023/05/07 09:39:42;;;;;;;6.25;3.40;;;24.20;70.40;;;;;;10527071;28;20079;-24
2023/05/07 09:44:46;;;;;;;4.82;3.35;;;24.20;70.00;;;;;;10521215;28;20051;-24
2023/05/07 09:49:49;;;;;;;5.10;2.75;;;24.30;70.00;;;;;;10519807;28;20412;-24
2023/05/07 09:54:52;;;;;;;5.50;3.30;;;24.50;68.40;;;;;;10520100;28;20032;-24
2023/05/07 09:59:57;;;;;;;3.85;2.90;;;24.40;68.90;;;;;;10525067;28;20054;-25
2023/05/07 10:05:00;;;;;;;6.25;2.83;;;24.40;68.90;;;;;;10525948;28;20124;-24
2023/05/07 10:10:03;;;;;;;10.68;6.30;;;24.40;68.50;;;;;;10529483;28;20778;-23
2023/05/07 10:15:08;;;;;;;4.43;2.60;;;24.60;67.60;;;;;;10530267;28;20047;-24
2023/05/07 10:20:11;;;;;;;7.15;3.50;;;24.70;67.80;;;;;;10528854;28;20060;-24
2023/05/07 10:25:18;;;;;;;6.32;3.20;;;24.40;67.80;;;;;;10526608;28;20131;-24
2023/05/07 10:30:32;;;;;;;6.15;2.75;;;24.30;67.00;;;;;;10524796;28;20063;-25
2023/05/07 10:35:41;;;;;;;5.30;2.90;;;24.60;68.40;;;;;;10517972;28;20131;-22
2023/05/07 10:40:44;;;;;;;5.72;2.55;;;24.70;67.80;;;;;;10536332;28;20044;-24
2023/05/07 10:46:11;;;;;;;12.75;3.80;;;24.70;67.50;;;;;;10531327;28;20124;-25
2023/05/07 10:51:20;;;;;;;3.15;2.30;;;24.70;67.80;;;;;;10531602;28;20412;-24
2023/05/07 10:56:29;;;;;;;4.72;2.47;;;24.70;67.20;;;;;;10542270;28;20471;-24
2023/05/07 11:01:52;;;;;;;10.18;4.40;;;25.00;66.50;;;;;;10529634;28;20111;-24
2023/05/07 11:07:25;;;;;;;7.20;2.22;;;24.90;64.00;;;;;;10517745;28;20142;-24
2023/05/07 11:12:53;;;;;;;4.50;2.78;;;24.80;68.00;;;;;;10540397;28;20078;-23
2023/05/07 11:17:58;;;;;;;10.02;5.95;;;24.70;69.10;;;;;;10525902;28;20409;-24
2023/05/07 11:23:00;;;;;;;8.48;6.15;;;24.50;70.00;;;;;;10530581;28;20079;-23
2023/05/07 11:28:05;;;;;;;;;;;24.10;69.50;;;;;;10528571;28;20508;-24
2023/05/07 11:33:09;;;;;;;5.40;3.75;;;23.00;80.60;;;;;;10528364;28;20018;-24
2023/05/07 11:38:11;;;;;;;2.92;2.30;;;24.30;72.90;;;;;;10514866;28;20477;-24
2023/05/07 11:43:13;;;;;;;6.13;2.10;;;24.50;71.60;;;;;;10529165;28;20075;-24
2023/05/07 11:48:17;;;;;;;6.28;4.68;;;24.50;73.20;;;;;;10529562;28;20056;-23
2023/05/07 11:53:19;;;;;;;2.35;1.88;;;23.90;75.70;;;;;;10531143;28;21305;-24
2023/05/07 11:58:25;;;;;;;17.23;11.82;;;24.50;72.70;;;;;;10536158;28;20487;-24
2023/05/07 12:03:28;;;;;;;13.30;7.38;;;23.30;76.60;;;;;;10529312;28;20063;-24
2023/05/07 12:08:30;;;;;;;6.13;3.65;;;24.10;76.50;;;;;;10528361;28;20268;-24
2023/05/07 12:13:32;;;;;;;18.23;8.13;;;23.90;78.50;;;;;;10517835;28;20052;-23
2023/05/07 12:18:37;;;;;;;10.50;6.10;;;23.30;79.60;;;;;;10520014;28;20067;-24
2023/05/07 12:23:39;;;;;;;3.28;1.88;;;24.10;76.00;;;;;;10521689;28;20036;-24
2023/05/07 12:28:41;;;;;;;6.13;2.25;;;24.60;73.70;;;;;;10522870;28;20148;-23
2023/05/07 12:33:46;;;;;;;7.45;5.03;;;24.70;72.60;;;;;;10527266;28;20036;-24
2023/05/07 12:38:51;;;;;;;15.25;7.28;;;24.60;73.40;;;;;;10502589;28;20488;-24
2023/05/07 12:43:57;;;;;;;6.32;2.63;;;25.00;71.00;;;;;;10527155;28;20047;-24
2023/05/07 12:49:00;;;;;;;4.63;2.15;;;25.30;69.40;;;;;;10524058;28;20157;-24
2023/05/07 12:54:02;;;;;;;4.03;2.10;;;25.30;67.60;;;;;;10524402;28;20044;-34
2023/05/07 12:59:04;;;;;;;9.07;3.75;;;25.50;66.80;;;;;;10520794;28;20048;-26
2023/05/07 13:04:07;;;;;;;11.77;2.53;;;25.10;69.10;;;;;;10531474;28;20078;-25
2023/05/07 13:09:09;;;;;;;9.50;5.35;;;25.40;67.20;;;;;;10527316;28;20059;-23
2023/05/07 13:14:11;;;;;;;6.78;3.13;;;25.50;66.90;;;;;;10523278;28;20087;-24
2023/05/07 13:19:14;;;;;;;14.15;3.75;;;25.70;66.30;;;;;;10535739;28;20056;-23
2023/05/07 13:24:16;;;;;;;8.98;2.85;;;25.60;67.60;;;;;;10533500;28;20122;-24
2023/05/07 13:29:18;;;;;;;15.85;6.28;;;25.20;70.60;;;;;;10532441;28;20155;-25
2023/05/07 13:34:21;;;;;;;10.38;3.15;;;25.60;66.50;;;;;;10534881;28;20071;-23
2023/05/07 13:39:23;;;;;;;11.20;6.15;;;25.40;69.00;;;;;;10518416;28;20147;-24
2023/05/07 13:44:25;;;;;;;14.15;8.55;;;25.10;69.30;;;;;;10528898;28;20533;-23
2023/05/07 13:49:29;;;;;;;7.70;3.20;;;25.30;69.00;;;;;;10531133;28;20146;-23
2023/05/07 13:54:31;;;;;;;9.18;3.72;;;25.00;72.20;;;;;;10536329;28;20067;-24
2023/05/07 13:59:33;;;;;;;13.27;4.18;;;25.20;71.50;;;;;;10539173;28;20477;-24
2023/05/07 14:04:37;;;;;;;18.92;9.85;;;24.80;72.90;;;;;;10533965;28;20120;-24
2023/05/07 14:09:39;;;;;;;7.90;3.75;;;24.60;63.90;;;;;;10534461;28;20411;-25
2023/05/07 14:14:40;;;;;;;;;;;25.20;71.40;;;;;;10524799;28;20530;-24
2023/05/07 14:19:44;;;;;;;17.42;7.10;;;24.30;78.40;;;;;;10530128;28;19927;-23
2023/05/07 14:24:46;;;;;;;4.70;2.58;;;25.10;68.30;;;;;;10517736;28;20423;-21
2023/05/07 14:29:50;;;;;;;6.28;3.28;;;25.60;69.80;;;;;;10529832;28;20055;-24
2023/05/07 14:34:53;;;;;;;13.25;3.60;;;26.00;71.20;;;;;;10535672;28;20063;-24
2023/05/07 14:39:55;;;;;;;5.57;3.13;;;26.30;69.40;;;;;;10530002;28;20134;-22
2023/05/07 14:44:57;;;;;;;20.63;11.88;;;26.70;67.20;;;;;;10531380;28;20445;-24
2023/05/07 14:50:01;;;;;;;12.48;6.78;;;26.80;61.10;;;;;;10529216;28;20069;-25
2023/05/07 14:55:03;;;;;;;24.08;12.52;;;26.80;61.10;;;;;;10535779;28;20138;-24
2023/05/07 15:00:06;;;;;;;10.98;5.55;;;26.20;60.50;;;;;;10532733;28;20134;-24
2023/05/07 15:05:10;;;;;;;5.68;2.58;;;26.50;71.10;;;;;;10534128;28;20071;-24
2023/05/07 15:10:12;;;;;;;12.35;6.68;;;27.20;71.20;;;;;;10543967;28;20130;-31
2023/05/07 15:15:14;;;;;;;15.85;8.82;;;27.40;67.70;;;;;;10529940;28;20105;-24
2023/05/07 15:20:17;;;;;;;6.32;3.60;;;27.40;66.70;;;;;;10539216;28;20522;-23
2023/05/07 15:25:19;;;;;;;7.53;4.07;;;27.20;71.70;;;;;;10529128;28;20044;-24
2023/05/07 15:30:21;;;;;;;5.78;4.18;;;27.70;73.40;;;;;;10529157;28;20079;-24
2023/05/07 15:35:25;;;;;;;4.13;2.67;;;28.00;70.40;;;;;;10530216;28;20057;-24
2023/05/07 15:40:27;;;;;;;5.00;2.20;;;28.10;68.00;;;;;;10530565;28;20063;-23
2023/05/07 15:45:29;;;;;;;8.55;5.13;;;28.20;69.60;;;;;;10525335;28;20068;-24
2023/05/07 15:50:32;;;;;;;4.22;2.60;;;27.60;68.90;;;;;;10515088;28;20044;-25
2023/05/07 15:55:35;;;;;;;4.38;2.60;;;28.00;71.30;;;;;;10526423;28;20059;-25
2023/05/07 16:00:39;;;;;;;4.28;3.00;;;28.20;70.60;;;;;;10522203;28;20056;-24
2023/05/07 16:05:43;;;;;;;6.47;3.13;;;27.90;65.30;;;;;;10516108;28;20540;-24
2023/05/07 16:10:44;;;;;;;10.48;3.30;;;27.90;64.10;;;;;;10535079;28;20060;-24
2023/05/07 16:15:47;;;;;;;11.48;3.63;;;27.80;63.50;;;;;;10526819;28;20131;-24
2023/05/07 16:20:50;;;;;;;11.48;3.65;;;27.90;63.40;;;;;;10525357;28;20048;-24
2023/05/07 16:25:52;;;;;;;14.27;4.35;;;27.90;62.80;;;;;;10528851;28;20048;-24
2023/05/07 16:30:54;;;;;;;9.85;5.78;;;27.80;63.40;;;;;;10529949;28;20135;-23
2023/05/07 16:35:57;;;;;;;14.55;4.57;;;27.70;63.20;;;;;;10530333;28;20064;-26
2023/05/07 16:40:59;;;;;;;12.35;4.65;;;27.70;63.40;;;;;;10527948;28;20708;-24
2023/05/07 16:46:01;;;;;;;19.77;4.93;;;27.80;63.00;;;;;;10527402;28;20400;-24
2023/05/07 16:51:06;;;;;;;14.93;4.28;;;27.80;63.00;;;;;;10533835;28;20440;-25
2023/05/07 16:56:08;;;;;;;11.80;5.15;;;27.90;62.30;;;;;;10520238;28;20417;-24
2023/05/07 17:01:11;;;;;;;14.07;5.32;;;27.90;62.00;;;;;;10526192;28;20484;-25
2023/05/07 17:06:14;;;;;;;12.45;4.93;;;27.90;61.80;;;;;;10519779;28;20078;-24
2023/05/07 17:11:16;;;;;;;11.50;5.00;;;27.90;61.40;;;;;;10527217;28;20761;-24
2023/05/07 17:16:18;;;;;;;9.77;4.68;;;28.00;61.20;;;;;;10527701;28;20489;-24
2023/05/07 17:21:21;;;;;;;8.32;4.28;;;28.10;60.70;;;;;;10527928;28;20048;-24
2023/05/07 17:26:23;;;;;;;14.23;4.50;;;28.10;60.50;;;;;;10531670;28;20044;-24
2023/05/07 17:31:25;;;;;;;9.70;4.38;;;28.20;60.20;;;;;;10527911;28;20052;-24
2023/05/07 17:36:28;;;;;;;6.18;3.30;;;28.20;60.10;;;;;;10514230;28;20670;-25
2023/05/07 17:41:30;;;;;;;9.57;3.50;;;28.20;60.10;;;;;;10525770;28;20044;-24
2023/05/07 17:46:33;;;;;;;12.38;4.00;;;28.30;60.10;;;;;;10517841;28;20047;-23
2023/05/07 17:51:36;;;;;;;8.60;3.55;;;28.30;60.60;;;;;;10524107;28;20503;-23
2023/05/07 17:56:38;;;;;;;9.45;3.85;;;28.30;60.00;;;;;;10526940;28;20040;-23
2023/05/07 18:01:41;;;;;;;9.05;3.65;;;28.30;60.00;;;;;;10522575;28;20059;-23
2023/05/07 18:06:44;;;;;;;9.65;4.10;;;28.40;59.70;;;;;;10523970;28;20136;-23
2023/05/07 18:11:46;;;;;;;8.50;3.85;;;28.20;59.80;;;;;;10527081;28;20659;-22
2023/05/07 18:16:48;;;;;;;8.80;4.30;;;28.30;59.30;;;;;;10527640;28;20083;-23
2023/05/07 18:21:51;;;;;;;7.15;4.18;;;28.30;59.10;;;;;;10525217;28;20123;-23
2023/05/07 18:26:53;;;;;;;6.75;2.92;;;28.60;60.70;;;;;;10529023;28;20040;-24
2023/05/07 18:31:55;;;;;;;6.03;3.03;;;28.80;61.10;;;;;;10519831;28;20048;-23
2023/05/07 18:36:58;;;;;;;7.30;2.85;;;28.90;62.00;;;;;;10517064;28;20044;-22
2023/05/07 18:42:00;;;;;;;9.70;2.80;;;28.90;62.10;;;;;;10527179;28;20086;-23
2023/05/07 18:47:02;;;;;;;4.88;2.67;;;29.00;62.20;;;;;;10525647;28;20087;-24
2023/05/07 18:52:05;;;;;;;5.05;3.10;;;28.90;63.20;;;;;;10529264;28;20137;-24
2023/05/07 18:57:07;;;;;;;4.40;2.50;;;28.90;63.20;;;;;;10525489;28;20063;-24
2023/05/07 19:02:09;;;;;;;5.60;2.42;;;28.90;63.20;;;;;;10520831;28;20606;-24
2023/05/07 19:07:12;;;;;;;5.90;2.72;;;28.80;63.80;;;;;;10529750;28;20059;-25
2023/05/07 19:12:14;;;;;;;5.40;2.60;;;28.80;63.30;;;;;;10535810;28;20150;-24
2023/05/07 19:17:16;;;;;;;7.60;2.80;;;28.60;63.20;;;;;;10532284;28;20041;-25
2023/05/07 19:22:19;;;;;;;5.30;2.97;;;28.50;62.80;;;;;;10527147;28;20047;-24
2023/05/07 19:27:21;;;;;;;8.27;3.28;;;28.30;62.00;;;;;;10532452;28;20048;-25
2023/05/07 19:32:23;;;;;;;4.20;2.88;;;28.30;61.90;;;;;;10531958;28;20663;-25
2023/05/07 19:37:26;;;;;;;5.63;2.80;;;28.20;61.80;;;;;;10529200;28;20055;-25
2023/05/07 19:42:28;;;;;;;6.55;2.78;;;28.10;61.80;;;;;;10528476;28;20127;-24
2023/05/07 19:47:30;;;;;;;5.22;2.80;;;28.10;61.70;;;;;;10530521;28;20048;-26
2023/05/07 19:52:34;;;;;;;7.10;3.55;;;28.00;61.60;;;;;;10542022;28;20076;-24
2023/05/07 19:57:36;;;;;;;5.68;2.53;;;27.90;61.60;;;;;;10532103;28;20094;-24
2023/05/07 20:02:37;;;;;;;5.47;3.10;;;27.90;61.70;;;;;;10533872;28;20135;-25
2023/05/07 20:07:41;;;;;;;7.38;3.08;;;27.80;61.70;;;;;;10525398;28;20079;-23
2023/05/07 20:12:43;;;;;;;5.50;2.95;;;27.70;61.60;;;;;;10522758;28;20416;-25
2023/05/07 20:17:45;;;;;;;7.15;3.20;;;27.70;61.80;;;;;;10529601;28;20530;-24
2023/05/07 20:22:48;;;;;;;5.50;2.85;;;27.60;61.70;;;;;;10531128;28;20048;-25
2023/05/07 20:27:50;;;;;;;6.15;3.38;;;27.60;62.00;;;;;;10526935;28;20113;-24
2023/05/07 20:32:52;;;;;;;4.85;2.55;;;27.50;61.90;;;;;;10520356;28;20487;-23
2023/05/07 20:37:55;;;;;;;4.97;3.03;;;27.40;62.00;;;;;;10509666;28;20053;-24
2023/05/07 20:42:57;;;;;;;4.68;2.42;;;27.40;62.10;;;;;;10522787;28;20044;-24
2023/05/07 20:48:00;;;;;;;7.93;3.13;;;27.30;62.10;;;;;;10526977;28;20040;-24
2023/05/07 20:53:03;;;;;;;7.00;2.60;;;27.20;62.10;;;;;;10523243;28;20052;-24
2023/05/07 20:58:05;;;;;;;3.92;2.47;;;27.20;62.20;;;;;;10534685;28;20126;-24
2023/05/07 21:03:07;;;;;;;6.07;2.45;;;27.20;62.40;;;;;;10526699;28;20072;-25
2023/05/07 21:08:10;;;;;;;6.28;2.65;;;27.10;62.30;;;;;;10519190;28;20048;-25
2023/05/07 21:13:12;;;;;;;4.15;2.67;;;27.00;62.40;;;;;;10525034;28;20052;-24
2023/05/07 21:18:14;;;;;;;6.72;3.30;;;27.00;62.50;;;;;;10516526;28;20666;-24
2023/05/07 21:23:17;;;;;;;5.60;2.75;;;26.90;62.40;;;;;;10519343;28;20036;-24
2023/05/07 21:28:19;;;;;;;5.30;2.97;;;26.90;62.50;;;;;;10526397;28;20075;-23
2023/05/07 21:33:21;;;;;;;5.93;2.92;;;26.80;62.40;;;;;;10516936;28;20113;-24
2023/05/07 21:38:24;;;;;;;4.72;2.58;;;26.80;62.60;;;;;;10531157;28;20078;-24
2023/05/07 21:43:26;;;;;;;4.72;2.95;;;26.70;62.50;;;;;;10525129;28;20517;-22
2023/05/07 21:48:28;;;;;;;3.70;2.55;;;26.70;62.60;;;;;;10515056;28;20160;-24
2023/05/07 21:53:31;;;;;;;5.03;3.00;;;26.60;62.70;;;;;;10538440;28;20052;-23
2023/05/07 21:58:33;;;;;;;4.68;2.83;;;26.60;62.80;;;;;;10526227;28;20434;-23
2023/05/07 22:03:35;;;;;;;4.47;3.10;;;26.50;62.80;;;;;;10533309;28;20083;-23
2023/05/07 22:08:38;;;;;;;4.82;2.90;;;26.50;62.80;;;;;;10533105;28;20790;-25
2023/05/07 22:13:40;;;;;;;4.40;2.90;;;26.40;62.80;;;;;;10526917;28;20138;-23
2023/05/07 22:18:42;;;;;;;3.75;2.70;;;26.40;62.90;;;;;;10533146;28;20080;-24
2023/05/07 22:23:45;;;;;;;5.70;3.63;;;26.30;63.00;;;;;;10536102;28;20054;-23
2023/05/07 22:28:47;;;;;;;6.63;2.92;;;26.10;63.90;;;;;;10537338;28;20549;-24
2023/05/07 22:33:49;;;;;;;4.00;3.00;;;26.20;63.00;;;;;;10524346;28;20050;-24
2023/05/07 22:38:52;;;;;;;5.50;3.17;;;26.20;63.00;;;;;;10522457;28;20040;-24
2023/05/07 22:43:55;;;;;;;4.70;3.05;;;26.10;62.90;;;;;;10525557;28;20487;-24
2023/05/07 22:48:56;;;;;;;8.80;3.63;;;26.10;62.90;;;;;;10527867;28;20083;-24
2023/05/07 22:54:00;;;;;;;4.35;3.20;;;26.00;62.90;;;;;;10527626;28;20139;-24
2023/05/07 22:59:01;;;;;;;7.47;3.15;;;26.00;62.90;;;;;;10527058;28;20050;-24
2023/05/07 23:04:03;;;;;;;5.15;3.20;;;25.90;62.80;;;;;;10532349;28;20105;-24
2023/05/07 23:09:07;;;;;;;3.85;2.95;;;25.90;62.90;;;;;;10532328;28;20068;-24
2023/05/07 23:14:09;;;;;;;5.40;3.10;;;25.90;63.10;;;;;;10529286;28;20051;-24
2023/05/07 23:19:11;;;;;;;5.70;2.90;;;25.80;63.10;;;;;;10541224;27;20082;-24
2023/05/07 23:24:14;;;;;;;5.43;3.42;;;25.80;63.20;;;;;;10537720;28;20457;-24
2023/05/07 23:29:16;;;;;;;6.05;3.40;;;25.80;63.20;;;;;;10537390;28;20060;-24
2023/05/07 23:34:22;;;;;;;6.18;3.20;;;25.70;63.20;;;;;;10525744;28;20130;-23
2023/05/07 23:39:25;;;;;;;7.30;3.08;;;25.70;63.30;;;;;;10538634;28;20101;-23
2023/05/07 23:44:27;;;;;;;4.22;2.95;;;25.60;63.20;;;;;;10531693;28;20131;-22
2023/05/07 23:49:29;;;;;;;4.80;3.08;;;25.50;63.30;;;;;;10528665;28;20054;-22
2023/05/07 23:54:32;;;;;;;7.78;3.25;;;25.50;63.30;;;;;;10522328;28;20458;-23
2023/05/07 23:59:34;;;;;;;5.90;3.47;;;25.50;63.30;;;;;;10532723;28;20474;-24
